createdAt,value
2023-02-26T00:01:15.887Z,0.80
2023-02-26T00:03:42.408Z,1.38
2023-02-26T00:06:09.608Z,0.82
2023-02-26T00:08:36.219Z,0.90
2023-02-26T00:11:06.092Z,1.17
2023-02-26T00:13:32.850Z,1.13
2023-02-26T00:16:00.541Z,1.40
2023-02-26T00:18:27.456Z,1.08
2023-02-26T00:20:54.352Z,1.33
2023-02-26T00:23:20.988Z,1.25
2023-02-26T00:25:47.437Z,1.20
2023-02-26T00:28:14.102Z,1.48
2023-02-26T00:30:40.919Z,1.60
2023-02-26T00:33:07.643Z,1.65
2023-02-26T00:35:34.564Z,1.25
2023-02-26T00:38:01.038Z,1.13
2023-02-26T00:40:30.742Z,1.52
2023-02-26T00:42:57.287Z,1.20
2023-02-26T00:45:23.788Z,1.17
2023-02-26T00:48:08.989Z,1.45
2023-02-26T00:50:36.010Z,1.17
2023-02-26T00:53:21.044Z,1.25
2023-02-26T00:55:47.557Z,1.13
2023-02-26T00:58:14.014Z,1.50
2023-02-26T01:00:40.448Z,1.88
2023-02-26T01:03:07.039Z,1.08
2023-02-26T01:05:33.685Z,1.58
2023-02-26T01:08:15.159Z,1.33
2023-02-26T01:10:41.894Z,0.88
2023-02-26T01:13:08.502Z,1.35
2023-02-26T01:15:35.691Z,0.98
2023-02-26T01:18:09.864Z,1.15
2023-02-26T01:20:38.562Z,1.20
2023-02-26T01:23:08.915Z,0.73
2023-02-26T01:25:39.262Z,1.55
2023-02-26T01:28:05.778Z,1.98
2023-02-26T01:30:32.391Z,0.88
2023-02-26T01:32:58.773Z,2.25
2023-02-26T01:35:31.532Z,1.17
2023-02-26T01:37:57.932Z,1.00
2023-02-26T01:40:42.862Z,1.48
2023-02-26T01:43:22.417Z,1.52
2023-02-26T01:46:02.017Z,2.03
2023-02-26T01:48:34.187Z,1.52
2023-02-26T01:51:00.749Z,1.67
2023-02-26T01:53:27.201Z,1.33
2023-02-26T01:55:58.368Z,1.50
2023-02-26T01:58:26.442Z,0.80
2023-02-26T02:00:52.952Z,0.88
2023-02-26T02:03:21.296Z,1.40
2023-02-26T02:05:52.138Z,1.10
2023-02-26T02:08:19.923Z,0.95
2023-02-26T02:10:47.645Z,1.05
2023-02-26T02:13:30.134Z,0.90
2023-02-26T02:15:59.764Z,1.08
2023-02-26T02:18:35.149Z,0.98
2023-02-26T02:21:04.345Z,0.90
2023-02-26T02:23:34.159Z,1.25
2023-02-26T02:26:09.416Z,0.80
2023-02-26T02:28:51.959Z,0.70
2023-02-26T02:34:05.082Z,1.17
2023-02-26T02:36:35.338Z,1.25
2023-02-26T02:39:27.900Z,1.15
2023-02-26T02:42:00.957Z,0.75
2023-02-26T02:44:28.557Z,0.60
2023-02-26T02:46:57.287Z,0.93
2023-02-26T02:49:26.060Z,1.08
2023-02-26T02:52:18.732Z,1.33
2023-02-26T02:54:48.096Z,1.15
2023-02-26T02:57:25.480Z,1.17
2023-02-26T02:59:55.772Z,0.80
2023-02-26T03:02:31.321Z,0.70
2023-02-26T03:04:57.837Z,0.75
2023-02-26T03:07:24.592Z,0.85
2023-02-26T03:09:51.191Z,1.17
2023-02-26T03:12:17.578Z,0.98
2023-02-26T03:14:43.988Z,0.70
2023-02-26T03:17:13.635Z,0.88
2023-02-26T03:19:42.772Z,0.90
2023-02-26T03:22:13.746Z,1.08
2023-02-26T03:24:57.959Z,0.80
2023-02-26T03:27:28.590Z,1.10
2023-02-26T03:30:04.047Z,0.70
2023-02-26T03:32:57.034Z,0.85
2023-02-26T03:35:29.547Z,0.60
2023-02-26T03:37:58.478Z,1.27
2023-02-26T03:40:27.419Z,0.68
2023-02-26T03:42:55.903Z,0.57
2023-02-26T03:45:24.958Z,0.60
2023-02-26T03:47:55.611Z,1.48
2023-02-26T03:50:25.206Z,1.23
2023-02-26T03:52:52.437Z,0.60
2023-02-26T03:55:22.283Z,0.57
2023-02-26T03:57:50.049Z,0.73
2023-02-26T04:00:17.814Z,0.55
2023-02-26T04:02:48.212Z,0.82
2023-02-26T04:05:17.374Z,0.85
2023-02-26T04:07:45.255Z,0.80
2023-02-26T04:10:14.810Z,0.68
2023-02-26T04:12:41.207Z,0.75
2023-02-26T04:15:07.944Z,0.52
2023-02-26T04:17:34.385Z,0.40
2023-02-26T04:20:00.766Z,0.68
2023-02-26T04:22:27.219Z,0.50
2023-02-26T04:24:53.638Z,0.90
2023-02-26T04:27:20.042Z,1.00
2023-02-26T04:29:46.441Z,0.82
2023-02-26T04:32:12.940Z,0.95
2023-02-26T04:34:39.425Z,0.60
2023-02-26T04:37:05.802Z,0.40
2023-02-26T04:39:32.226Z,0.75
2023-02-26T04:41:58.719Z,0.75
2023-02-26T04:44:25.112Z,0.68
2023-02-26T04:46:51.535Z,0.50
2023-02-26T04:49:17.949Z,0.50
2023-02-26T04:51:44.397Z,0.63
2023-02-26T04:54:10.835Z,0.50
2023-02-26T04:56:37.258Z,0.50
2023-02-26T04:59:03.897Z,0.35
2023-02-26T05:01:30.702Z,0.60
2023-02-26T05:03:57.130Z,1.10
2023-02-26T05:06:23.836Z,0.80
2023-02-26T05:08:50.406Z,1.48
2023-02-26T05:11:16.834Z,0.70
2023-02-26T05:13:43.275Z,0.52
2023-02-26T05:16:09.759Z,0.43
2023-02-26T05:18:36.276Z,0.88
2023-02-26T05:21:03.397Z,1.20
2023-02-26T05:23:29.930Z,1.30
2023-02-26T05:25:57.031Z,0.35
2023-02-26T05:28:24.292Z,0.60
2023-02-26T05:30:51.074Z,0.70
2023-02-26T05:33:17.592Z,0.77
2023-02-26T05:35:45.583Z,0.75
2023-02-26T05:38:11.984Z,0.35
2023-02-26T05:40:38.410Z,0.88
2023-02-26T05:43:04.839Z,0.82
2023-02-26T05:45:31.291Z,0.50
2023-02-26T05:47:57.747Z,0.57
2023-02-26T05:50:24.220Z,0.82
2023-02-26T05:52:50.621Z,0.70
2023-02-26T05:55:17.551Z,0.50
2023-02-26T05:57:44.196Z,0.30
2023-02-26T06:00:11.152Z,0.50
2023-02-26T06:02:37.623Z,0.63
2023-02-26T06:05:04.354Z,0.82
2023-02-26T06:07:30.875Z,0.60
2023-02-26T06:09:57.323Z,0.25
2023-02-26T06:12:23.764Z,0.60
2023-02-26T06:14:50.131Z,0.50
2023-02-26T06:17:16.527Z,0.95
2023-02-26T06:19:43.019Z,0.50
2023-02-26T06:22:09.434Z,0.65
2023-02-26T06:24:35.858Z,0.85
2023-02-26T06:27:02.357Z,0.70
2023-02-26T06:29:28.806Z,0.57
2023-02-26T06:31:55.417Z,0.73
2023-02-26T06:34:22.710Z,0.52
2023-02-26T06:36:49.433Z,0.47
2023-02-26T06:39:15.888Z,1.02
2023-02-26T06:41:42.373Z,0.88
2023-02-26T06:44:10.135Z,0.70
2023-02-26T06:46:36.528Z,1.63
2023-02-26T06:49:03.058Z,0.43
2023-02-26T06:51:30.915Z,0.75
2023-02-26T06:53:57.342Z,0.73
2023-02-26T06:56:24.418Z,1.50
2023-02-26T06:58:51.229Z,0.55
2023-02-26T07:01:17.762Z,1.13
2023-02-26T07:03:44.313Z,0.60
2023-02-26T07:06:26.415Z,1.48
2023-02-26T07:08:53.871Z,0.68
2023-02-26T07:11:20.341Z,1.17
2023-02-26T07:13:46.811Z,0.30
2023-02-26T07:16:13.366Z,0.65
2023-02-26T07:18:40.166Z,0.90
2023-02-26T07:21:06.836Z,0.63
2023-02-26T07:23:33.534Z,0.77
2023-02-26T07:25:59.955Z,0.65
2023-02-26T07:28:26.630Z,0.60
2023-02-26T07:30:54.477Z,0.80
2023-02-26T07:33:20.984Z,0.73
2023-02-26T07:35:47.761Z,0.85
2023-02-26T07:38:14.585Z,0.88
2023-02-26T07:40:40.962Z,0.70
2023-02-26T07:43:07.388Z,0.63
2023-02-26T07:45:33.810Z,0.77
2023-02-26T07:48:00.623Z,0.68
2023-02-26T07:50:27.750Z,0.47
2023-02-26T07:52:54.241Z,0.73
2023-02-26T07:55:21.067Z,0.60
2023-02-26T07:57:47.675Z,0.65
2023-02-26T08:00:14.804Z,0.77
2023-02-26T08:02:41.409Z,0.52
2023-02-26T08:05:08.066Z,0.30
2023-02-26T08:07:34.678Z,0.43
2023-02-26T08:10:01.133Z,0.60
2023-02-26T08:12:27.624Z,0.65
2023-02-26T08:14:54.060Z,0.70
2023-02-26T08:17:20.426Z,1.33
2023-02-26T08:19:46.826Z,0.65
2023-02-26T08:22:14.217Z,0.60
2023-02-26T08:24:40.717Z,0.57
2023-02-26T08:27:07.091Z,0.85
2023-02-26T08:29:33.531Z,0.88
2023-02-26T08:32:00.090Z,0.43
2023-02-26T08:34:26.631Z,0.90
2023-02-26T08:36:53.089Z,1.17
2023-02-26T08:39:19.505Z,1.33
2023-02-26T08:41:46.038Z,0.70
2023-02-26T08:44:12.477Z,1.02
2023-02-26T08:46:38.963Z,0.63
2023-02-26T08:49:05.485Z,0.50
2023-02-26T08:51:31.948Z,1.00
2023-02-26T08:53:58.453Z,1.00
2023-02-26T08:56:25.035Z,0.50
2023-02-26T08:58:52.299Z,1.10
2023-02-26T09:01:18.770Z,0.60
2023-02-26T09:03:45.252Z,0.68
2023-02-26T09:06:11.932Z,0.90
2023-02-26T09:08:38.373Z,0.90
2023-02-26T09:11:05.809Z,0.73
2023-02-26T09:13:32.254Z,1.08
2023-02-26T09:15:58.737Z,0.75
2023-02-26T09:18:25.194Z,1.20
2023-02-26T09:20:51.761Z,1.00
2023-02-26T09:23:18.233Z,1.80
2023-02-26T09:25:45.537Z,1.25
2023-02-26T09:28:12.026Z,0.93
2023-02-26T09:30:38.460Z,1.17
2023-02-26T09:33:05.412Z,0.90
2023-02-26T09:35:31.862Z,1.10
2023-02-26T09:37:58.317Z,1.00
2023-02-26T09:40:43.776Z,1.10
2023-02-26T09:43:10.191Z,0.93
2023-02-26T09:45:38.892Z,1.05
2023-02-26T09:48:06.712Z,1.20
2023-02-26T09:50:33.221Z,1.48
2023-02-26T09:53:27.575Z,1.15
2023-02-26T09:55:55.915Z,1.63
2023-02-26T09:58:37.339Z,1.50
2023-02-26T10:01:03.750Z,1.17
2023-02-26T10:03:48.433Z,1.90
2023-02-26T10:06:29.442Z,1.48
2023-02-26T10:09:04.861Z,1.55
2023-02-26T10:11:38.907Z,1.05
2023-02-26T10:14:27.080Z,1.95
2023-02-26T10:16:56.465Z,1.08
2023-02-26T10:19:25.733Z,1.25
2023-02-26T10:21:54.565Z,1.77
2023-02-26T10:24:32.014Z,1.02
2023-02-26T10:27:02.854Z,1.50
2023-02-26T10:29:43.940Z,1.27
2023-02-26T10:32:23.874Z,1.85
2023-02-26T10:34:57.054Z,1.45
2023-02-26T10:37:23.486Z,1.38
2023-02-26T10:40:09.336Z,1.08
2023-02-26T10:42:41.216Z,1.13
2023-02-26T10:45:22.876Z,0.90
2023-02-26T10:48:08.911Z,0.90
2023-02-26T10:50:35.679Z,1.20
2023-02-26T10:53:02.511Z,1.10
2023-02-26T10:55:38.994Z,1.50
2023-02-26T10:58:09.239Z,1.45
2023-02-26T11:00:35.786Z,0.82
2023-02-26T11:03:03.820Z,1.10
2023-02-26T11:05:31.790Z,1.08
2023-02-26T11:08:01.510Z,1.40
2023-02-26T11:10:31.512Z,1.58
2023-02-26T11:12:58.672Z,1.33
2023-02-26T11:15:26.029Z,0.82
2023-02-26T11:17:57.196Z,0.80
2023-02-26T11:20:30.345Z,0.73
2023-02-26T11:22:59.663Z,1.45
2023-02-26T11:25:28.451Z,1.25
2023-02-26T11:28:00.587Z,1.58
2023-02-26T11:30:29.321Z,1.25
2023-02-26T11:32:57.883Z,1.00
2023-02-26T11:35:26.626Z,2.05
2023-02-26T11:37:55.947Z,0.85
2023-02-26T11:40:24.397Z,1.13
2023-02-26T11:42:53.543Z,1.10
2023-02-26T11:45:20.989Z,1.40
2023-02-26T11:47:49.351Z,1.35
2023-02-26T11:50:26.011Z,1.20
2023-02-26T11:52:57.002Z,1.17
2023-02-26T11:55:31.790Z,0.88
2023-02-26T11:57:58.272Z,1.35
2023-02-26T12:00:37.792Z,1.48
2023-02-26T12:03:08.151Z,1.65
2023-02-26T12:05:36.092Z,1.50
2023-02-26T12:08:03.727Z,0.82
2023-02-26T12:10:59.298Z,1.92
2023-02-26T12:13:31.548Z,1.30
2023-02-26T12:16:33.505Z,1.30
2023-02-26T12:19:08.863Z,0.80
2023-02-26T12:21:58.277Z,1.35
2023-02-26T12:24:30.643Z,0.90
2023-02-26T12:29:36.507Z,0.82
2023-02-26T12:32:14.374Z,0.98
2023-02-26T12:34:43.918Z,1.55
2023-02-26T12:37:10.287Z,0.82
2023-02-26T12:39:55.530Z,1.27
2023-02-26T12:42:37.203Z,1.05
2023-02-26T12:45:22.427Z,0.80
2023-02-26T12:48:07.698Z,1.38
2023-02-26T12:50:53.018Z,1.00
2023-02-26T12:53:32.115Z,1.30
2023-02-26T12:55:58.500Z,1.58
2023-02-26T12:58:36.759Z,1.90
2023-02-26T13:01:21.872Z,1.10
2023-02-26T13:03:48.247Z,1.08
2023-02-26T13:06:21.616Z,0.98
2023-02-26T13:09:06.262Z,1.05
2023-02-26T13:11:32.638Z,1.77
2023-02-26T13:14:05.244Z,1.33
2023-02-26T13:16:31.730Z,1.02
2023-02-26T13:19:03.653Z,1.10
2023-02-26T13:21:50.316Z,1.52
2023-02-26T13:24:22.986Z,0.95
2023-02-26T13:26:50.390Z,2.05
2023-02-26T13:29:22.086Z,1.85
2023-02-26T13:31:59.939Z,1.60
2023-02-26T13:34:29.434Z,1.63
2023-02-26T13:36:56.941Z,1.73
2023-02-26T13:39:34.778Z,1.35
2023-02-26T13:42:16.200Z,1.65
2023-02-26T13:44:42.661Z,1.80
2023-02-26T13:47:10.795Z,1.33
2023-02-26T13:49:39.938Z,1.98
2023-02-26T13:52:21.923Z,1.98
2023-02-26T13:54:49.076Z,2.38
2023-02-26T13:57:28.007Z,2.97
2023-02-26T13:59:54.489Z,1.40
2023-02-26T14:02:20.872Z,0.88
2023-02-26T14:04:51.643Z,1.27
2023-02-26T14:07:38.013Z,1.02
2023-02-26T14:10:14.642Z,0.95
2023-02-26T14:12:44.204Z,0.90
2023-02-26T14:15:13.454Z,0.85
2023-02-26T14:17:47.344Z,1.20
2023-02-26T14:20:32.570Z,0.68
2023-02-26T14:23:09.656Z,1.00
2023-02-26T14:25:46.907Z,2.97
2023-02-26T14:28:25.376Z,1.42
2023-02-26T14:30:53.733Z,2.60
2023-02-26T14:33:26.904Z,1.13
2023-02-26T14:35:54.321Z,1.02
2023-02-26T14:38:20.685Z,1.42
2023-02-26T14:40:52.043Z,0.93
2023-02-26T14:43:25.202Z,1.33
2023-02-26T14:45:51.731Z,0.80
2023-02-26T14:48:20.553Z,0.90
2023-02-26T14:51:02.410Z,0.73
2023-02-26T14:53:39.233Z,1.38
2023-02-26T14:56:32.158Z,1.00
2023-02-26T14:59:04.689Z,1.80
2023-02-26T15:01:41.421Z,1.25
2023-02-26T15:04:10.715Z,1.42
2023-02-26T15:06:52.168Z,1.20
2023-02-26T15:09:21.810Z,2.55
2023-02-26T15:12:01.530Z,1.17
2023-02-26T15:14:46.502Z,1.00
2023-02-26T15:17:12.997Z,1.77
2023-02-26T15:19:45.247Z,1.35
2023-02-26T15:22:19.217Z,1.55
2023-02-26T15:24:46.070Z,0.93
2023-02-26T15:27:15.133Z,1.65
2023-02-26T15:29:42.156Z,1.30
2023-02-26T15:32:28.592Z,2.33
2023-02-26T15:35:04.689Z,1.50
2023-02-26T15:37:35.269Z,1.33
2023-02-26T15:40:05.178Z,2.30
2023-02-26T15:42:33.779Z,1.45
2023-02-26T15:45:01.637Z,1.85
2023-02-26T15:47:29.055Z,1.30
2023-02-26T15:49:56.591Z,1.77
2023-02-26T15:52:24.957Z,2.53
2023-02-26T15:55:03.145Z,1.48
2023-02-26T15:57:30.430Z,1.90
2023-02-26T16:00:08.569Z,1.70
2023-02-26T16:02:35.028Z,1.50
2023-02-26T16:05:01.858Z,0.93
2023-02-26T16:07:28.300Z,1.83
2023-02-26T16:09:55.260Z,1.65
2023-02-26T16:12:23.945Z,1.05
2023-02-26T16:14:51.727Z,2.05
2023-02-26T16:17:32.221Z,1.63
2023-02-26T16:20:00.077Z,1.73
2023-02-26T16:22:35.288Z,1.70
2023-02-26T16:25:23.600Z,1.80
2023-02-26T16:27:56.912Z,1.92
2023-02-26T16:30:26.310Z,1.40
2023-02-26T16:32:54.274Z,2.38
2023-02-26T16:35:22.849Z,2.20
2023-02-26T16:37:52.605Z,1.65
2023-02-26T16:40:21.098Z,1.63
2023-02-26T16:42:47.572Z,1.52
2023-02-26T16:45:16.952Z,1.63
2023-02-26T16:47:44.942Z,1.80
2023-02-26T16:50:19.142Z,1.88
2023-02-26T16:52:47.386Z,1.30
2023-02-26T16:55:18.460Z,2.13
2023-02-26T16:57:46.199Z,1.70
2023-02-26T17:00:17.754Z,1.35
2023-02-26T17:02:45.700Z,1.70
2023-02-26T17:05:18.917Z,1.52
2023-02-26T17:08:05.692Z,2.08
2023-02-26T17:10:33.730Z,1.65
2023-02-26T17:13:15.083Z,1.90
2023-02-26T17:15:41.792Z,1.83
2023-02-26T17:18:08.652Z,1.55
2023-02-26T17:20:36.241Z,1.60
2023-02-26T17:23:03.447Z,1.80
2023-02-26T17:25:33.703Z,2.63
2023-02-26T17:28:00.186Z,1.30
2023-02-26T17:30:29.958Z,1.63
2023-02-26T17:32:56.434Z,1.90
2023-02-26T17:35:22.833Z,2.33
2023-02-26T17:37:50.697Z,1.83
2023-02-26T17:40:22.139Z,2.13
2023-02-26T17:42:48.640Z,1.38
2023-02-26T17:45:15.746Z,2.78
2023-02-26T17:47:42.429Z,2.63
2023-02-26T17:50:34.963Z,1.73
2023-02-26T17:53:01.557Z,1.60
2023-02-26T17:55:27.951Z,2.17
2023-02-26T17:57:55.298Z,2.10
2023-02-26T18:00:21.766Z,2.33
2023-02-26T18:02:48.187Z,1.50
2023-02-26T18:05:14.695Z,1.85
2023-02-26T18:07:41.252Z,1.90
2023-02-26T18:10:08.335Z,2.38
2023-02-26T18:12:34.794Z,2.03
2023-02-26T18:15:01.238Z,2.47
2023-02-26T18:17:29.701Z,2.63
2023-02-26T18:19:56.088Z,2.08
2023-02-26T18:22:25.439Z,1.98
2023-02-26T18:24:52.645Z,2.38
2023-02-26T18:27:19.995Z,2.15
2023-02-26T18:29:46.813Z,1.70
2023-02-26T18:32:21.042Z,2.72
2023-02-26T18:34:49.445Z,2.83
2023-02-26T18:37:17.503Z,3.17
2023-02-26T18:39:44.337Z,3.13
2023-02-26T18:42:24.389Z,2.40
2023-02-26T18:44:50.974Z,3.15
2023-02-26T18:47:17.849Z,1.77
2023-02-26T18:49:44.628Z,2.45
2023-02-26T18:52:11.717Z,2.33
2023-02-26T18:54:38.286Z,2.85
2023-02-26T18:57:05.529Z,2.53
2023-02-26T18:59:33.726Z,2.42
2023-02-26T19:02:01.129Z,2.70
2023-02-26T19:04:27.856Z,2.85
2023-02-26T19:06:54.411Z,3.25
2023-02-26T19:09:21.252Z,2.45
2023-02-26T19:11:47.691Z,2.20
2023-02-26T19:14:14.071Z,2.38
2023-02-26T19:16:42.582Z,3.28
2023-02-26T19:19:11.788Z,2.20
2023-02-26T19:21:41.147Z,2.55
2023-02-26T19:24:08.691Z,2.20
2023-02-26T19:26:35.391Z,2.30
2023-02-26T19:29:02.060Z,3.22
2023-02-26T19:31:28.783Z,2.88
2023-02-26T19:33:55.432Z,2.83
2023-02-26T19:36:22.088Z,2.88
2023-02-26T19:38:51.945Z,2.47
2023-02-26T19:41:19.843Z,3.17
2023-02-26T19:43:47.128Z,2.42
2023-02-26T19:46:13.887Z,2.80
2023-02-26T19:48:41.122Z,2.80
2023-02-26T19:51:07.582Z,2.42
2023-02-26T19:53:34.936Z,2.83
2023-02-26T19:56:02.187Z,1.90
2023-02-26T19:58:30.753Z,3.28
2023-02-26T20:00:58.287Z,2.58
2023-02-26T20:03:25.038Z,2.53
2023-02-26T20:05:51.789Z,1.98
2023-02-26T20:08:18.595Z,2.80
2023-02-26T20:10:46.213Z,1.98
2023-02-26T20:13:13.443Z,2.92
2023-02-26T20:15:40.506Z,2.70
2023-02-26T20:18:07.534Z,2.67
2023-02-26T20:20:34.472Z,2.00
2023-02-26T20:23:01.072Z,3.13
2023-02-26T20:25:28.092Z,2.17
2023-02-26T20:27:54.601Z,2.72
2023-02-26T20:30:21.238Z,3.03
2023-02-26T20:32:48.127Z,2.47
2023-02-26T20:35:14.755Z,2.95
2023-02-26T20:37:41.254Z,2.85
2023-02-26T20:40:07.992Z,2.90
2023-02-26T20:42:34.715Z,2.03
2023-02-26T20:45:01.138Z,2.90
2023-02-26T20:47:28.051Z,2.63
2023-02-26T20:49:54.442Z,2.40
2023-02-26T20:52:21.046Z,2.60
2023-02-26T20:54:47.483Z,2.10
2023-02-26T20:57:13.973Z,2.95
2023-02-26T20:59:40.397Z,2.67
2023-02-26T21:02:07.157Z,2.42
2023-02-26T21:04:33.574Z,2.78
2023-02-26T21:07:12.848Z,2.33
2023-02-26T21:09:39.943Z,2.60
2023-02-26T21:12:06.544Z,3.20
2023-02-26T21:14:33.343Z,2.63
2023-02-26T21:17:01.967Z,3.22
2023-02-26T21:19:28.394Z,2.90
2023-02-26T21:21:54.893Z,3.28
2023-02-26T21:24:21.273Z,3.10
2023-02-26T21:26:47.856Z,2.70
2023-02-26T21:29:14.422Z,3.17
2023-02-26T21:31:40.965Z,3.25
2023-02-26T21:34:30.211Z,2.83
2023-02-26T21:36:53.842Z,3.70
2023-02-26T21:39:20.334Z,3.63
2023-02-26T21:41:46.867Z,3.42
2023-02-26T21:44:13.270Z,3.15
2023-02-26T21:46:39.692Z,3.60
2023-02-26T21:49:06.037Z,3.58
2023-02-26T21:51:32.502Z,3.22
2023-02-26T21:53:59.005Z,3.47
2023-02-26T21:56:26.001Z,4.55
2023-02-26T21:58:52.589Z,2.83
2023-02-26T22:01:19.046Z,3.40
2023-02-26T22:03:45.528Z,3.30
2023-02-26T22:06:12.434Z,4.07
2023-02-26T22:08:38.872Z,3.13
2023-02-26T22:11:05.417Z,3.25
2023-02-26T22:13:32.182Z,3.50
2023-02-26T22:15:58.694Z,3.92
2023-02-26T22:18:25.391Z,3.53
2023-02-26T22:20:51.789Z,3.13
2023-02-26T22:23:18.651Z,3.47
2023-02-26T22:25:45.949Z,4.80
2023-02-26T22:28:12.366Z,3.13
2023-02-26T22:30:39.231Z,3.63
2023-02-26T22:33:05.727Z,3.75
2023-02-26T22:35:32.265Z,3.22
2023-02-26T22:37:58.710Z,4.32
2023-02-26T22:40:25.488Z,2.75
2023-02-26T22:42:51.942Z,4.47
2023-02-26T22:45:18.672Z,3.92
2023-02-26T22:47:45.915Z,3.30
2023-02-26T22:50:12.995Z,3.70
2023-02-26T22:52:39.503Z,3.15
2023-02-26T22:55:06.250Z,4.72
2023-02-26T22:57:32.708Z,4.25
2023-02-26T22:59:59.129Z,4.05
2023-02-26T23:02:25.674Z,3.22
2023-02-26T23:04:52.139Z,4.47
2023-02-26T23:07:19.335Z,4.72
2023-02-26T23:09:45.738Z,4.72
2023-02-26T23:12:12.219Z,4.25
2023-02-26T23:14:38.601Z,5.00
2023-02-26T23:17:05.118Z,4.70
2023-02-26T23:19:31.597Z,5.10
2023-02-26T23:21:57.974Z,5.13
2023-02-26T23:24:24.387Z,4.63
2023-02-26T23:26:51.171Z,5.07
2023-02-26T23:29:17.571Z,4.18
2023-02-26T23:31:44.061Z,4.90
2023-02-26T23:34:11.227Z,4.38
2023-02-26T23:36:37.675Z,4.90
2023-02-26T23:39:04.225Z,5.07
2023-02-26T23:41:30.667Z,5.70
2023-02-26T23:43:57.051Z,4.30
2023-02-26T23:46:23.600Z,4.03
2023-02-26T23:48:50.066Z,5.60
2023-02-26T23:51:16.503Z,5.00
2023-02-26T23:53:42.879Z,3.67
2023-02-26T23:56:09.284Z,5.28
2023-02-26T23:58:35.683Z,4.75
